Time;durP1;ratioP1;P1;durP2;ratioP2;P2;SDS_P1;SDS_P2;PMS_P1;PMS_P2;Temp;Humidity;BMP_temperature;BMP_pressure;BME280_temperature;BME280_humidity;BME280_pressure;Samples;Min_cycle;Max_cycle;Signal;HPM_P1;HPM_P2
2022/01/06 00:01:56;;;;;;;4.38;2.85;;;4.00;69.40;;;;;;5067341;28;20040;-74
2022/01/06 00:04:22;;;;;;;5.30;3.35;;;3.90;69.20;;;;;;5067454;28;20036;-74
2022/01/06 00:06:48;;;;;;;4.75;2.92;;;3.90;69.20;;;;;;5049053;28;20115;-74
2022/01/06 00:09:17;;;;;;;5.10;2.83;;;3.90;69.20;;;;;;5065752;28;20082;-73
2022/01/06 00:11:44;;;;;;;5.78;3.22;;;3.90;69.20;;;;;;5066651;28;20417;-74
2022/01/06 00:14:18;;;;;;;6.10;3.25;;;3.90;69.80;;;;;;5066407;28;20042;-73
2022/01/06 00:25:00;;;;;;;4.13;2.90;;;3.90;69.20;;;;;;5048077;28;20036;-74
2022/01/06 00:27:26;;;;;;;6.93;3.30;;;3.80;69.00;;;;;;5048124;28;20041;-73
2022/01/06 00:29:52;;;;;;;5.20;2.95;;;3.80;69.10;;;;;;5046895;28;20025;-74
2022/01/06 00:32:18;;;;;;;3.92;2.90;;;3.80;69.10;;;;;;5047250;28;20066;-74
2022/01/06 00:34:44;;;;;;;4.72;2.65;;;3.80;69.10;;;;;;5046533;28;20086;-74
2022/01/06 00:37:10;;;;;;;4.88;3.08;;;3.70;68.90;;;;;;5052807;28;20107;-73
2022/01/06 00:39:36;;;;;;;7.53;3.53;;;3.70;68.90;;;;;;5054003;28;20033;-74
2022/01/06 00:42:02;;;;;;;4.75;3.05;;;3.70;68.90;;;;;;5046821;28;20043;-74
2022/01/06 00:44:28;;;;;;;11.02;3.42;;;3.70;69.00;;;;;;5046010;28;20037;-72
2022/01/06 00:46:54;;;;;;;7.38;3.65;;;3.70;69.00;;;;;;5046315;28;20065;-72
2022/01/06 00:49:20;;;;;;;4.75;2.75;;;3.70;69.00;;;;;;5046532;28;20033;-74
2022/01/06 00:51:46;;;;;;;8.48;4.05;;;3.60;68.80;;;;;;5028161;28;20025;-74
2022/01/06 00:54:13;;;;;;;7.00;2.92;;;3.60;68.80;;;;;;5046437;28;20396;-71
2022/01/06 00:56:40;;;;;;;7.28;3.78;;;3.60;68.80;;;;;;5046228;28;20400;-71
2022/01/06 00:59:06;;;;;;;4.93;3.10;;;3.60;68.80;;;;;;5046144;28;20606;-72
2022/01/06 01:01:32;;;;;;;5.45;3.00;;;3.60;68.90;;;;;;5046271;28;20033;-74
2022/01/06 01:03:59;;;;;;;5.03;2.65;;;3.60;68.90;;;;;;5045093;28;20037;-73
2022/01/06 01:06:25;;;;;;;8.90;4.05;;;3.60;68.90;;;;;;5046091;28;20032;-73
2022/01/06 01:08:51;;;;;;;4.63;3.20;;;3.60;68.90;;;;;;5044340;28;20037;-73
2022/01/06 01:11:17;;;;;;;7.13;3.22;;;3.60;68.90;;;;;;5045688;28;20036;-72
2022/01/06 01:14:17;;;;;;;6.45;3.05;;;3.50;68.80;;;;;;5046068;28;20126;-72
2022/01/06 01:16:32;;;;;;;6.53;4.10;;;3.50;68.80;;;;;;5027577;28;20041;-73
2022/01/06 01:19:01;;;;;;;10.63;4.05;;;3.60;68.90;;;;;;5045334;28;20036;-73
2022/01/06 01:21:28;;;;;;;6.60;3.20;;;3.60;69.40;;;;;;5046269;28;20522;-72
2022/01/06 01:23:58;;;;;;;5.97;3.38;;;3.60;68.90;;;;;;5045611;28;20053;-73
2022/01/06 01:26:25;;;;;;;5.47;2.90;;;3.60;68.90;;;;;;5045845;28;20108;-73
2022/01/06 01:28:54;;;;;;;4.15;3.20;;;3.60;68.90;;;;;;5044690;28;20817;-73
2022/01/06 01:31:30;;;;;;;6.28;3.30;;;3.50;68.70;;;;;;5028220;28;20029;-72
2022/01/06 01:33:58;;;;;;;5.90;3.60;;;3.60;68.90;;;;;;5045351;28;20036;-73
2022/01/06 01:36:25;;;;;;;8.15;4.10;;;3.60;68.90;;;;;;5028089;28;20718;-73
2022/01/06 01:38:51;;;;;;;6.80;3.15;;;3.60;68.90;;;;;;5035875;28;20036;-73
2022/01/06 01:41:17;;;;;;;7.00;3.38;;;3.50;68.70;;;;;;5066366;28;20029;-72
2022/01/06 01:43:46;;;;;;;5.00;3.33;;;3.60;68.90;;;;;;5056643;28;20091;-73
2022/01/06 01:46:16;;;;;;;5.57;3.03;;;3.60;68.90;;;;;;5028036;28;20448;-72
2022/01/06 01:48:56;;;;;;;4.72;3.22;;;3.60;68.90;;;;;;5049115;28;20132;-73
2022/01/06 01:51:22;;;;;;;6.20;3.15;;;3.60;68.90;;;;;;5065973;28;20059;-72
2022/01/06 01:53:47;;;;;;;8.45;3.33;;;3.60;68.90;;;;;;5055412;28;20552;-72
2022/01/06 01:56:14;;;;;;;5.88;3.30;;;3.60;68.90;;;;;;5045384;28;20025;-72
2022/01/06 01:58:41;;;;;;;9.25;3.60;;;3.60;68.90;;;;;;5045039;28;20124;-72
2022/01/06 02:01:07;;;;;;;4.95;3.10;;;3.60;68.90;;;;;;5044734;28;20655;-73
2022/01/06 02:03:33;;;;;;;6.78;3.42;;;3.70;69.10;;;;;;5045082;28;20071;-73
2022/01/06 02:05:59;;;;;;;4.88;3.08;;;3.70;69.10;;;;;;5027744;28;20519;-72
2022/01/06 02:08:25;;;;;;;7.10;3.45;;;3.70;69.10;;;;;;5045356;28;20041;-73
2022/01/06 02:10:51;;;;;;;6.45;3.22;;;3.70;69.10;;;;;;5045101;28;20384;-72
2022/01/06 02:13:17;;;;;;;6.28;2.55;;;3.70;69.10;;;;;;5045334;28;20223;-73
2022/01/06 02:15:43;;;;;;;4.80;2.72;;;3.80;69.30;;;;;;5048352;28;20040;-73
2022/01/06 02:18:09;;;;;;;7.95;3.10;;;3.80;69.30;;;;;;5031726;28;20056;-73
2022/01/06 02:20:35;;;;;;;7.10;3.28;;;3.80;69.30;;;;;;5049631;28;20582;-73
2022/01/06 02:23:01;;;;;;;7.00;2.65;;;3.80;69.20;;;;;;5049715;28;20033;-72
2022/01/06 02:25:32;;;;;;;7.57;3.08;;;3.90;69.40;;;;;;5048648;28;20059;-73
2022/01/06 02:28:03;;;;;;;5.78;3.30;;;3.90;69.40;;;;;;5049587;28;20037;-73
2022/01/06 02:30:35;;;;;;;3.65;2.97;;;3.90;69.40;;;;;;5049355;28;20435;-72
2022/01/06 02:33:02;;;;;;;5.25;2.50;;;3.90;69.40;;;;;;5032219;28;20322;-73
2022/01/06 02:35:29;;;;;;;5.28;2.33;;;3.90;69.40;;;;;;5032980;28;20056;-73
2022/01/06 02:37:56;;;;;;;5.93;3.95;;;4.00;69.60;;;;;;5050250;28;20582;-73
2022/01/06 02:40:24;;;;;;;6.43;3.33;;;4.00;69.60;;;;;;5050694;28;20063;-73
2022/01/06 02:42:55;;;;;;;7.15;3.38;;;3.90;69.40;;;;;;5050088;28;20036;-73
2022/01/06 02:45:26;;;;;;;6.57;3.20;;;4.00;69.60;;;;;;5052448;28;20124;-72
2022/01/06 02:47:52;;;;;;;8.05;3.22;;;4.00;69.60;;;;;;5055035;28;20510;-73
2022/01/06 02:50:18;;;;;;;5.63;2.83;;;4.00;69.60;;;;;;5055560;28;20024;-72
2022/01/06 02:52:44;;;;;;;5.85;3.20;;;4.00;69.60;;;;;;5073003;28;20060;-73
2022/01/06 02:55:13;;;;;;;7.18;3.47;;;4.00;69.60;;;;;;5073666;28;20506;-73
2022/01/06 02:57:40;;;;;;;8.23;4.45;;;4.00;69.60;;;;;;5073354;28;20029;-72
2022/01/06 03:00:08;;;;;;;7.32;3.40;;;4.00;69.60;;;;;;5072533;28;20547;-72
2022/01/06 03:02:34;;;;;;;6.10;3.33;;;4.00;69.70;;;;;;5073155;28;20043;-73
2022/01/06 03:05:00;;;;;;;9.38;4.45;;;4.00;69.70;;;;;;5072957;28;20025;-72
2022/01/06 03:07:30;;;;;;;6.50;3.63;;;4.00;69.70;;;;;;5073398;28;20044;-73
2022/01/06 03:09:58;;;;;;;8.68;4.32;;;4.10;69.90;;;;;;5055585;28;20158;-73
2022/01/06 03:12:26;;;;;;;6.95;3.70;;;4.10;69.90;;;;;;5073430;28;20062;-74
2022/01/06 03:14:52;;;;;;;12.50;4.65;;;4.10;70.00;;;;;;5072539;28;20055;-73
2022/01/06 03:17:18;;;;;;;7.93;4.22;;;4.00;69.80;;;;;;5073109;28;20468;-73
2022/01/06 03:19:45;;;;;;;8.00;4.53;;;4.10;70.00;;;;;;5073138;28;20499;-72
2022/01/06 03:22:11;;;;;;;12.10;4.70;;;4.10;70.00;;;;;;5072961;28;20029;-72
2022/01/06 03:24:37;;;;;;;9.63;4.32;;;4.10;70.00;;;;;;5072874;28;20059;-73
2022/01/06 03:27:03;;;;;;;8.60;4.55;;;4.20;70.10;;;;;;5070559;28;20383;-72
2022/01/06 03:29:29;;;;;;;7.93;4.00;;;4.20;70.20;;;;;;5071959;28;20028;-72
2022/01/06 03:31:55;;;;;;;9.45;4.57;;;4.20;70.20;;;;;;5072712;28;20039;-73
2022/01/06 03:34:21;;;;;;;8.48;4.65;;;4.10;70.00;;;;;;5072441;28;20033;-73
2022/01/06 03:36:47;;;;;;;8.32;4.68;;;4.10;70.00;;;;;;5072536;28;20078;-72
2022/01/06 03:39:13;;;;;;;10.30;4.57;;;4.20;70.20;;;;;;5072949;28;20036;-73
2022/01/06 03:41:39;;;;;;;9.32;4.90;;;4.20;70.20;;;;;;5073837;28;20098;-73
2022/01/06 03:44:05;;;;;;;6.75;3.70;;;4.20;70.20;;;;;;5075857;28;20029;-73
2022/01/06 03:46:31;;;;;;;11.98;4.78;;;4.20;70.20;;;;;;5075000;28;20028;-73
2022/01/06 03:48:57;;;;;;;10.30;4.40;;;4.20;70.20;;;;;;5072975;28;20045;-73
2022/01/06 03:51:23;;;;;;;6.90;4.15;;;4.20;70.20;;;;;;5072984;28;20077;-72
2022/01/06 03:53:50;;;;;;;7.85;3.58;;;4.20;70.20;;;;;;5073352;28;20445;-73
2022/01/06 03:56:17;;;;;;;9.73;4.55;;;4.20;70.30;;;;;;5072795;28;20029;-72
2022/01/06 03:58:44;;;;;;;8.57;4.13;;;4.20;70.30;;;;;;5071903;28;20123;-72
2022/01/06 04:01:11;;;;;;;8.07;4.32;;;4.30;70.40;;;;;;5072200;28;20383;-73
2022/01/06 04:03:36;;;;;;;7.00;4.28;;;4.20;70.30;;;;;;5054549;28;20123;-73
2022/01/06 04:06:03;;;;;;;10.95;4.72;;;4.20;70.30;;;;;;5071840;28;20542;-72
2022/01/06 04:08:29;;;;;;;8.68;4.63;;;4.20;70.30;;;;;;5072076;28;20040;-73
2022/01/06 04:10:55;;;;;;;12.00;5.13;;;4.30;70.50;;;;;;5071593;28;20042;-73
2022/01/06 04:13:21;;;;;;;7.78;4.13;;;4.30;70.50;;;;;;5071666;28;20111;-73
2022/01/06 04:15:47;;;;;;;6.85;4.05;;;4.30;70.50;;;;;;5071979;28;20021;-72
2022/01/06 04:18:13;;;;;;;10.57;4.13;;;4.30;70.50;;;;;;5071873;28;20037;-72
2022/01/06 04:20:39;;;;;;;6.72;3.95;;;4.30;70.50;;;;;;5071574;28;20039;-72
2022/01/06 04:23:05;;;;;;;5.97;4.43;;;4.30;70.50;;;;;;5071655;28;20467;-73
2022/01/06 04:25:31;;;;;;;7.85;4.00;;;4.40;70.70;;;;;;5071797;28;20468;-73
2022/01/06 04:27:57;;;;;;;7.47;3.33;;;4.40;70.70;;;;;;5071583;28;20513;-72
2022/01/06 04:30:23;;;;;;;8.35;3.63;;;4.40;70.70;;;;;;5070945;28;20044;-73
2022/01/06 04:32:49;;;;;;;6.25;3.60;;;4.40;70.60;;;;;;5053572;28;20156;-73
2022/01/06 04:35:15;;;;;;;7.15;4.03;;;4.40;70.60;;;;;;5071609;28;20282;-73
2022/01/06 04:37:41;;;;;;;8.02;3.70;;;4.40;70.70;;;;;;5069959;28;20029;-73
2022/01/06 04:40:08;;;;;;;9.55;3.67;;;4.40;70.60;;;;;;5070220;28;20028;-72
2022/01/06 04:42:34;;;;;;;6.65;3.78;;;4.40;70.60;;;;;;5071061;28;20036;-73
2022/01/06 04:45:00;;;;;;;7.20;4.28;;;4.40;70.70;;;;;;5071112;28;20032;-72
2022/01/06 04:47:26;;;;;;;6.88;4.10;;;4.40;70.60;;;;;;5070800;28;20182;-72
2022/01/06 04:49:52;;;;;;;7.25;4.05;;;4.40;70.60;;;;;;5071421;28;20271;-72
2022/01/06 04:52:18;;;;;;;7.63;3.80;;;4.40;70.60;;;;;;5053370;28;20028;-72
2022/01/06 04:54:44;;;;;;;8.73;4.00;;;4.40;70.70;;;;;;5071297;28;20036;-72
2022/01/06 04:57:10;;;;;;;6.13;4.00;;;4.40;70.70;;;;;;5070968;28;20028;-72
2022/01/06 04:59:36;;;;;;;6.65;3.58;;;4.40;70.70;;;;;;5070374;28;20043;-72
2022/01/06 05:02:03;;;;;;;6.40;3.38;;;4.50;70.90;;;;;;5071071;28;20496;-72
2022/01/06 05:04:29;;;;;;;8.57;3.88;;;4.50;70.80;;;;;;5070738;28;20029;-73
2022/01/06 05:06:55;;;;;;;7.00;3.50;;;4.40;70.70;;;;;;5070796;28;20115;-72
2022/01/06 05:09:21;;;;;;;5.93;3.65;;;4.50;70.90;;;;;;5070888;28;20056;-72
2022/01/06 05:11:47;;;;;;;6.68;3.45;;;4.50;70.90;;;;;;5071129;28;20506;-72
2022/01/06 05:14:13;;;;;;;7.97;3.90;;;4.50;70.90;;;;;;5070962;28;20040;-72
2022/01/06 05:16:39;;;;;;;8.38;3.40;;;4.50;70.90;;;;;;5070719;28;20028;-72
2022/01/06 05:19:05;;;;;;;5.22;3.17;;;4.50;70.90;;;;;;5070863;28;20028;-72
2022/01/06 05:21:32;;;;;;;8.15;3.17;;;4.50;70.90;;;;;;5070632;28;20143;-72
2022/01/06 05:23:59;;;;;;;10.05;3.90;;;4.50;70.90;;;;;;5070964;28;20475;-72
2022/01/06 05:26:25;;;;;;;7.80;3.50;;;4.50;70.90;;;;;;5070706;28;20036;-72
2022/01/06 05:28:51;;;;;;;4.90;3.15;;;4.50;70.90;;;;;;5069997;28;20488;-72
2022/01/06 05:31:17;;;;;;;9.52;3.60;;;4.60;71.10;;;;;;5070760;28;20056;-72
2022/01/06 05:33:43;;;;;;;6.70;3.53;;;4.60;71.10;;;;;;5069697;28;20029;-72
2022/01/06 05:36:09;;;;;;;6.75;2.92;;;4.60;71.00;;;;;;5069658;28;20027;-72
2022/01/06 05:38:35;;;;;;;4.97;3.35;;;4.60;71.00;;;;;;5070730;28;20039;-73
2022/01/06 05:41:01;;;;;;;6.47;3.45;;;4.60;71.00;;;;;;5071656;28;20067;-72
2022/01/06 05:43:27;;;;;;;6.57;3.65;;;4.60;71.00;;;;;;5071885;28;20479;-72
2022/01/06 05:45:55;;;;;;;7.30;2.97;;;4.60;71.00;;;;;;5071399;28;20520;-72
2022/01/06 05:48:22;;;;;;;6.68;3.47;;;4.60;71.00;;;;;;5066790;28;20456;-72
2022/01/06 05:50:48;;;;;;;5.82;3.17;;;4.60;71.00;;;;;;5069479;28;20024;-73
2022/01/06 05:53:17;;;;;;;4.88;2.67;;;4.60;71.00;;;;;;5071552;28;20111;-73
2022/01/06 05:55:44;;;;;;;5.72;2.92;;;4.50;70.80;;;;;;5053982;28;20036;-73
2022/01/06 05:58:10;;;;;;;6.05;3.10;;;4.50;70.90;;;;;;5071056;28;20028;-73
2022/01/06 06:00:36;;;;;;;7.00;3.13;;;4.50;70.90;;;;;;5070485;28;20029;-73
2022/01/06 06:03:02;;;;;;;6.35;2.65;;;4.50;71.00;;;;;;5067666;28;20032;-73
2022/01/06 06:05:28;;;;;;;4.55;2.72;;;4.50;71.00;;;;;;5069055;28;20121;-73
2022/01/06 06:07:54;;;;;;;6.10;3.10;;;4.40;70.80;;;;;;5069153;28;20309;-73
2022/01/06 06:10:20;;;;;;;5.93;2.97;;;4.40;71.40;;;;;;5069084;28;20327;-72
2022/01/06 06:12:52;;;;;;;7.70;3.90;;;4.50;71.10;;;;;;5050683;28;20248;-73
2022/01/06 06:15:21;;;;;;;8.25;3.47;;;4.40;70.90;;;;;;5069050;28;20471;-73
2022/01/06 06:17:48;;;;;;;6.40;3.13;;;4.40;70.90;;;;;;5067445;28;20052;-73
2022/01/06 06:20:14;;;;;;;5.22;2.83;;;4.40;70.90;;;;;;5050456;28;20112;-73
2022/01/06 06:22:40;;;;;;;5.10;2.38;;;4.40;70.90;;;;;;5050692;28;20429;-73
2022/01/06 06:25:07;;;;;;;5.55;2.47;;;4.40;70.90;;;;;;5065169;28;20036;-73
2022/01/06 06:27:32;;;;;;;6.70;2.67;;;4.40;70.90;;;;;;5050786;28;20184;-74
2022/01/06 06:29:58;;;;;;;4.20;2.33;;;4.40;70.90;;;;;;5068245;28;20032;-73
2022/01/06 06:32:26;;;;;;;8.27;2.58;;;4.40;70.90;;;;;;5068591;28;20033;-73
2022/01/06 06:34:53;;;;;;;7.68;3.15;;;4.40;70.90;;;;;;5068204;28;20066;-72
2022/01/06 06:37:19;;;;;;;6.95;2.58;;;4.40;70.90;;;;;;5068998;28;20028;-72
2022/01/06 06:39:45;;;;;;;6.63;2.85;;;4.50;71.10;;;;;;5068549;28;20029;-72
2022/01/06 06:42:11;;;;;;;5.68;2.38;;;4.50;71.10;;;;;;5068944;28;20400;-72
2022/01/06 06:44:37;;;;;;;4.03;2.55;;;4.50;71.00;;;;;;5067950;28;20036;-72
2022/01/06 06:47:03;;;;;;;6.00;2.95;;;4.50;71.00;;;;;;5075504;28;20101;-72
2022/01/06 06:49:29;;;;;;;5.55;2.88;;;4.50;71.00;;;;;;5071937;28;20305;-73
2022/01/06 06:51:55;;;;;;;5.68;2.40;;;4.50;71.00;;;;;;5072304;28;20114;-73
2022/01/06 06:54:21;;;;;;;5.13;2.10;;;4.50;71.00;;;;;;5052971;28;20025;-73
2022/01/06 06:56:47;;;;;;;4.38;2.35;;;4.50;70.90;;;;;;5048186;28;20078;-73
2022/01/06 06:59:13;;;;;;;5.78;2.38;;;4.50;70.90;;;;;;5049811;28;20041;-73
2022/01/06 07:01:39;;;;;;;3.67;2.08;;;4.50;70.90;;;;;;5049506;28;20033;-73
2022/01/06 07:04:05;;;;;;;6.50;2.55;;;4.50;70.90;;;;;;5050225;28;20053;-74
2022/01/06 07:06:31;;;;;;;6.57;3.15;;;4.50;70.90;;;;;;5073835;28;20483;-73
2022/01/06 07:08:57;;;;;;;2.88;1.90;;;4.40;70.70;;;;;;5064573;28;20044;-73
2022/01/06 07:11:23;;;;;;;6.10;2.10;;;4.40;70.80;;;;;;5088629;28;20475;-74
2022/01/06 07:13:49;;;;;;;4.75;2.30;;;4.40;70.80;;;;;;5068063;28;20535;-73
2022/01/06 07:16:15;;;;;;;4.22;2.20;;;4.40;70.80;;;;;;5056346;28;20440;-73
2022/01/06 07:18:41;;;;;;;5.82;2.33;;;4.40;70.80;;;;;;5068027;28;20119;-73
2022/01/06 07:21:07;;;;;;;6.22;2.92;;;4.40;70.80;;;;;;5050675;28;20032;-73
2022/01/06 07:23:33;;;;;;;5.38;2.90;;;4.30;70.60;;;;;;5062136;28;20063;-72
2022/01/06 07:25:59;;;;;;;5.18;2.22;;;4.40;70.80;;;;;;5063273;28;20055;-73
2022/01/06 07:28:25;;;;;;;4.95;2.55;;;4.40;70.80;;;;;;5051627;28;20040;-72
2022/01/06 07:30:51;;;;;;;6.65;2.13;;;4.30;70.70;;;;;;5064609;28;20066;-72
2022/01/06 07:33:17;;;;;;;3.97;2.00;;;4.30;70.70;;;;;;5067919;28;20024;-73
2022/01/06 07:35:42;;;;;;;4.00;2.25;;;4.30;70.70;;;;;;5039970;28;20029;-72
2022/01/06 07:38:08;;;;;;;6.07;3.20;;;4.30;70.70;;;;;;5045925;28;20029;-72
2022/01/06 07:40:34;;;;;;;3.53;2.38;;;4.30;70.70;;;;;;5046218;28;20491;-72
2022/01/06 07:43:00;;;;;;;5.45;1.88;;;4.20;70.50;;;;;;5047621;28;20117;-73
2022/01/06 07:45:26;;;;;;;3.95;1.90;;;4.20;70.50;;;;;;5029061;28;20403;-72
2022/01/06 07:47:57;;;;;;;3.67;2.03;;;4.20;70.50;;;;;;5045293;28;20143;-73
2022/01/06 07:50:26;;;;;;;4.63;2.60;;;4.20;70.50;;;;;;5027492;28;20075;-73
2022/01/06 07:52:52;;;;;;;3.25;2.00;;;4.20;70.50;;;;;;5045668;28;20079;-72
2022/01/06 07:55:19;;;;;;;4.68;2.08;;;4.20;70.50;;;;;;5045381;28;20512;-74
2022/01/06 07:57:45;;;;;;;4.68;2.00;;;4.10;70.40;;;;;;5044576;28;20033;-73
2022/01/06 08:00:11;;;;;;;4.82;2.13;;;4.20;70.50;;;;;;5046849;28;20298;-73
2022/01/06 08:02:40;;;;;;;3.45;1.80;;;4.20;70.60;;;;;;5047094;28;20033;-73
2022/01/06 08:05:10;;;;;;;3.53;2.25;;;4.10;70.40;;;;;;5044572;28;20539;-73
2022/01/06 08:07:36;;;;;;;5.80;1.92;;;4.10;70.40;;;;;;5066880;28;20045;-73
2022/01/06 08:10:03;;;;;;;3.67;1.65;;;4.10;70.40;;;;;;5066546;28;20116;-73
2022/01/06 08:12:29;;;;;;;4.47;1.80;;;4.20;70.50;;;;;;5066208;28;20056;-73
2022/01/06 08:14:55;;;;;;;4.82;2.47;;;4.20;70.50;;;;;;5048459;28;20029;-74
2022/01/06 08:17:22;;;;;;;2.72;1.70;;;4.20;71.00;;;;;;5067221;28;20369;-73
2022/01/06 08:19:47;;;;;;;4.13;2.00;;;4.20;70.40;;;;;;5066576;28;20040;-73
2022/01/06 08:22:14;;;;;;;4.03;2.03;;;4.20;70.40;;;;;;5067114;28;20556;-74
2022/01/06 08:24:40;;;;;;;4.32;1.88;;;4.30;70.50;;;;;;5066714;28;20495;-73
2022/01/06 08:27:08;;;;;;;3.28;1.75;;;4.30;70.50;;;;;;5049049;28;20612;-73
2022/01/06 08:29:36;;;;;;;2.75;1.63;;;4.30;70.40;;;;;;5056335;28;20041;-73
2022/01/06 08:32:02;;;;;;;4.93;1.70;;;4.40;70.50;;;;;;5046516;28;20060;-73
2022/01/06 08:34:28;;;;;;;3.45;2.00;;;4.40;70.50;;;;;;5060310;28;20036;-73
2022/01/06 08:36:54;;;;;;;4.57;1.55;;;4.50;70.60;;;;;;5064501;28;20502;-73
2022/01/06 08:39:21;;;;;;;3.65;1.88;;;4.50;70.50;;;;;;5050991;28;20044;-72
2022/01/06 08:41:49;;;;;;;5.03;2.03;;;4.50;70.50;;;;;;5028117;28;20634;-73
2022/01/06 08:44:15;;;;;;;3.78;1.75;;;4.60;70.60;;;;;;5057272;28;20055;-73
2022/01/06 08:46:42;;;;;;;6.03;1.60;;;4.60;70.50;;;;;;5064164;28;20040;-73
2022/01/06 08:49:11;;;;;;;5.10;1.85;;;4.70;70.60;;;;;;5052874;28;20471;-73
2022/01/06 08:51:38;;;;;;;5.13;1.65;;;4.70;70.60;;;;;;5028880;28;20124;-73
2022/01/06 08:54:06;;;;;;;3.47;1.77;;;4.70;70.50;;;;;;5051721;28;20025;-74
2022/01/06 08:56:34;;;;;;;4.72;1.98;;;4.70;70.50;;;;;;5065055;28;20130;-73
2022/01/06 08:59:00;;;;;;;3.90;1.98;;;4.80;70.60;;;;;;5066343;28;20059;-72
2022/01/06 09:01:27;;;;;;;4.90;2.20;;;4.80;70.50;;;;;;5067005;28;20028;-72
2022/01/06 09:03:53;;;;;;;3.13;1.70;;;4.80;70.50;;;;;;5048326;28;20037;-73
2022/01/06 09:06:22;;;;;;;3.22;1.67;;;4.90;70.60;;;;;;5060783;28;20029;-73
2022/01/06 09:08:48;;;;;;;3.05;1.67;;;4.90;70.50;;;;;;5058007;28;20098;-73
2022/01/06 09:11:14;;;;;;;3.45;1.77;;;4.90;70.50;;;;;;5066675;28;20091;-73
2022/01/06 09:13:41;;;;;;;2.88;1.73;;;5.00;70.70;;;;;;5066243;28;20503;-73
2022/01/06 09:16:08;;;;;;;3.03;1.48;;;5.00;70.60;;;;;;5066144;28;20492;-73
2022/01/06 09:18:38;;;;;;;6.32;1.92;;;5.10;70.70;;;;;;5065585;28;20483;-73
2022/01/06 09:21:05;;;;;;;3.13;1.95;;;5.10;70.70;;;;;;5047855;28;20052;-73
2022/01/06 09:23:32;;;;;;;3.30;1.60;;;5.10;70.60;;;;;;5065929;28;20024;-74
2022/01/06 09:25:58;;;;;;;3.70;1.67;;;5.20;70.70;;;;;;5065842;28;20449;-73
2022/01/06 09:28:24;;;;;;;3.92;1.63;;;5.20;70.70;;;;;;5065254;28;20044;-72
2022/01/06 09:30:51;;;;;;;3.50;1.55;;;5.20;70.60;;;;;;5065482;28;20043;-73
2022/01/06 09:33:18;;;;;;;3.85;2.10;;;5.30;70.70;;;;;;5047654;28;20041;-73
2022/01/06 09:35:46;;;;;;;3.58;1.42;;;5.30;70.70;;;;;;5066031;28;20039;-73
2022/01/06 09:38:13;;;;;;;3.05;1.30;;;5.40;70.80;;;;;;5065617;28;20544;-73
2022/01/06 09:40:43;;;;;;;2.50;1.58;;;5.30;70.70;;;;;;5066496;28;20423;-73
2022/01/06 09:43:12;;;;;;;3.00;1.58;;;5.40;70.80;;;;;;5065562;28;20048;-73
2022/01/06 09:45:39;;;;;;;2.67;1.45;;;5.40;70.80;;;;;;5064410;28;20036;-72
2022/01/06 09:48:06;;;;;;;2.83;1.30;;;5.40;71.20;;;;;;5065641;28;20056;-72
2022/01/06 09:50:32;;;;;;;3.25;1.60;;;5.40;70.70;;;;;;5065329;28;20028;-73
2022/01/06 09:52:59;;;;;;;3.13;1.98;;;5.50;70.80;;;;;;5062828;28;20119;-73
2022/01/06 09:55:25;;;;;;;3.65;1.50;;;5.50;70.80;;;;;;5027680;28;20268;-73
2022/01/06 09:57:59;;;;;;;3.22;1.70;;;5.50;70.80;;;;;;5048330;28;20029;-72
2022/01/06 10:00:28;;;;;;;3.33;1.60;;;5.60;70.90;;;;;;5065990;28;20384;-72
2022/01/06 10:03:05;;;;;;;3.63;1.77;;;5.60;70.80;;;;;;5065124;28;20033;-72
2022/01/06 10:05:42;;;;;;;3.05;1.48;;;5.70;70.90;;;;;;5065281;28;20024;-72
2022/01/06 10:08:10;;;;;;;8.07;1.65;;;5.70;70.80;;;;;;5046875;28;20048;-73
2022/01/06 10:10:36;;;;;;;7.05;1.60;;;5.80;71.00;;;;;;5065208;28;20028;-73
2022/01/06 10:13:07;;;;;;;2.55;1.17;;;5.90;71.00;;;;;;5064876;28;20032;-73
2022/01/06 10:15:38;;;;;;;3.70;1.15;;;5.90;70.90;;;;;;5063494;28;20052;-73
2022/01/06 10:18:16;;;;;;;2.42;1.00;;;6.00;71.00;;;;;;5065455;28;20051;-73
2022/01/06 10:20:43;;;;;;;3.13;1.10;;;6.00;70.90;;;;;;5065053;28;20032;-72
2022/01/06 10:23:15;;;;;;;5.40;1.23;;;6.00;70.80;;;;;;5065213;28;20028;-73
2022/01/06 10:25:49;;;;;;;3.45;1.13;;;6.10;70.90;;;;;;5065122;28;20060;-72
2022/01/06 10:28:17;;;;;;;2.33;1.20;;;6.20;71.00;;;;;;5066052;28;20024;-73
2022/01/06 10:30:48;;;;;;;3.58;1.35;;;6.20;70.80;;;;;;5067786;28;20420;-73
2022/01/06 10:33:23;;;;;;;5.60;1.20;;;6.30;70.90;;;;;;5067899;28;20044;-73
2022/01/06 10:35:50;;;;;;;2.03;1.30;;;6.30;70.80;;;;;;5068520;28;20032;-73
2022/01/06 10:38:28;;;;;;;5.10;0.93;;;6.40;70.80;;;;;;5070203;28;20159;-73
2022/01/06 10:41:07;;;;;;;5.90;1.23;;;6.50;70.90;;;;;;5068818;28;20036;-72
2022/01/06 10:43:33;;;;;;;3.03;1.38;;;6.60;70.90;;;;;;5069661;28;20047;-73
2022/01/06 10:46:02;;;;;;;2.60;1.35;;;6.60;70.80;;;;;;5069112;28;20029;-72
2022/01/06 10:48:28;;;;;;;3.33;0.98;;;6.70;70.80;;;;;;5068499;28;20592;-73
2022/01/06 10:50:58;;;;;;;2.00;1.27;;;6.70;70.70;;;;;;5050742;28;20129;-72
2022/01/06 10:53:25;;;;;;;2.25;1.02;;;6.80;70.80;;;;;;5068373;28;20028;-72
2022/01/06 10:55:51;;;;;;;4.40;1.80;;;6.80;70.70;;;;;;5067381;28;20115;-72
2022/01/06 10:58:19;;;;;;;3.70;1.52;;;6.90;70.80;;;;;;5043488;28;20062;-72
2022/01/06 11:00:52;;;;;;;4.15;1.00;;;6.90;70.70;;;;;;5048179;28;20029;-72
2022/01/06 11:03:28;;;;;;;3.03;1.00;;;7.00;70.80;;;;;;5048055;28;20381;-72
2022/01/06 11:05:57;;;;;;;1.90;0.80;;;7.00;70.70;;;;;;5059766;28;20037;-72
2022/01/06 11:08:26;;;;;;;2.58;2.00;;;7.00;70.60;;;;;;5061463;28;20405;-73
2022/01/06 11:13:44;;;;;;;3.75;1.15;;;7.10;70.70;;;;;;5037045;28;20044;-73
2022/01/06 11:16:12;;;;;;;3.90;1.08;;;7.10;70.70;;;;;;5068306;28;20510;-74
2022/01/06 11:18:59;;;;;;;2.28;1.13;;;7.10;70.60;;;;;;5067007;28;20111;-73
2022/01/06 11:21:46;;;;;;;4.13;1.10;;;7.00;70.90;;;;;;5067107;28;20025;-73
2022/01/06 11:24:18;;;;;;;3.83;1.35;;;7.10;70.50;;;;;;5054568;28;20459;-73
2022/01/06 11:27:03;;;;;;;3.33;1.50;;;7.20;70.90;;;;;;5048395;28;20039;-73
2022/01/06 11:29:36;;;;;;;2.20;0.93;;;7.20;71.00;;;;;;5047979;28;20123;-73
2022/01/06 11:32:04;;;;;;;1.52;0.57;;;7.30;71.10;;;;;;5047992;28;20544;-73
2022/01/06 11:34:38;;;;;;;5.10;1.17;;;7.40;71.20;;;;;;5047409;28;20560;-74
2022/01/06 11:37:14;;;;;;;4.07;2.15;;;7.50;71.40;;;;;;5047811;28;20033;-73
2022/01/06 11:39:41;;;;;;;1.75;1.00;;;7.50;71.20;;;;;;5046556;28;20025;-72
2022/01/06 11:42:17;;;;;;;2.60;0.80;;;7.60;71.30;;;;;;5067424;28;20403;-72
2022/01/06 11:44:52;;;;;;;4.53;1.10;;;7.60;71.20;;;;;;5067476;28;20078;-73
2022/01/06 11:47:33;;;;;;;7.05;1.65;;;7.60;71.10;;;;;;5066600;28;20095;-73
2022/01/06 11:50:16;;;;;;;5.28;1.00;;;7.70;71.20;;;;;;5067121;28;20082;-73
2022/01/06 11:52:54;;;;;;;3.92;1.00;;;7.70;71.10;;;;;;5067269;28;20034;-73
2022/01/06 11:55:22;;;;;;;2.33;1.10;;;7.70;71.10;;;;;;5067262;28;20024;-73
2022/01/06 11:57:48;;;;;;;1.55;0.90;;;7.70;71.00;;;;;;5067356;28;20028;-73
2022/01/06 12:00:24;;;;;;;3.42;1.00;;;7.80;71.10;;;;;;5067329;28;20063;-73
2022/01/06 12:03:02;;;;;;;4.05;1.10;;;7.80;71.00;;;;;;5066709;28;20031;-73
2022/01/06 12:05:52;;;;;;;2.85;0.95;;;7.90;71.20;;;;;;5067454;28;20029;-74
2022/01/06 12:08:21;;;;;;;3.58;0.95;;;7.90;71.10;;;;;;5066436;28;20040;-73
2022/01/06 12:10:50;;;;;;;2.35;1.00;;;8.00;71.20;;;;;;5049481;28;20021;-73
2022/01/06 12:13:17;;;;;;;2.13;1.30;;;8.00;71.10;;;;;;5066752;28;20028;-73
2022/01/06 12:15:50;;;;;;;2.25;0.93;;;8.00;71.00;;;;;;5066941;28;20578;-73
2022/01/06 12:18:24;;;;;;;5.57;1.00;;;8.10;71.00;;;;;;5051049;28;20033;-73
2022/01/06 12:20:52;;;;;;;1.77;1.02;;;8.10;70.90;;;;;;5066781;28;20476;-74
2022/01/06 12:23:19;;;;;;;3.67;1.20;;;8.20;71.00;;;;;;5062252;28;20176;-73
2022/01/06 12:25:59;;;;;;;6.63;1.75;;;8.20;71.00;;;;;;5028980;28;20083;-73
2022/01/06 12:28:27;;;;;;;4.32;1.05;;;8.20;70.90;;;;;;5054008;28;20358;-74
2022/01/06 12:30:58;;;;;;;5.57;2.10;;;8.20;70.80;;;;;;5067298;28;20055;-73
2022/01/06 12:33:24;;;;;;;4.57;1.40;;;8.30;71.00;;;;;;5061965;28;20024;-73
2022/01/06 12:35:53;;;;;;;4.35;1.27;;;8.30;70.90;;;;;;5047757;28;20468;-73
2022/01/06 12:38:31;;;;;;;5.53;1.33;;;8.30;70.90;;;;;;5045712;28;20714;-74
2022/01/06 12:40:59;;;;;;;3.15;1.10;;;8.40;71.00;;;;;;5046430;28;20036;-73
2022/01/06 12:43:28;;;;;;;2.42;1.02;;;8.40;71.00;;;;;;5046793;28;20056;-74
2022/01/06 12:46:05;;;;;;;3.47;1.48;;;8.40;70.90;;;;;;5046560;28;20029;-74
2022/01/06 12:48:36;;;;;;;6.28;1.60;;;8.40;70.90;;;;;;5045887;28;20037;-73
2022/01/06 12:51:06;;;;;;;4.15;1.73;;;8.40;70.90;;;;;;5044962;28;20121;-74
2022/01/06 12:53:35;;;;;;;6.03;1.63;;;8.40;70.80;;;;;;5049608;28;20111;-74
2022/01/06 12:56:01;;;;;;;5.80;1.73;;;8.40;70.80;;;;;;5048563;28;20062;-75
2022/01/06 12:58:35;;;;;;;3.70;1.30;;;8.40;70.80;;;;;;5051683;28;20123;-75
2022/01/06 13:01:06;;;;;;;5.75;1.90;;;8.50;71.00;;;;;;5045726;28;20445;-75
2022/01/06 13:03:37;;;;;;;3.63;1.23;;;8.50;71.00;;;;;;5046224;28;20029;-74
2022/01/06 13:06:10;;;;;;;5.10;1.60;;;8.50;71.00;;;;;;5046252;28;20033;-74
2022/01/06 13:08:56;;;;;;;3.08;1.10;;;8.50;71.00;;;;;;5047896;28;20066;-74
2022/01/06 13:11:29;;;;;;;4.07;1.30;;;8.60;71.10;;;;;;5041990;28;20521;-74
2022/01/06 13:13:58;;;;;;;8.95;1.40;;;8.60;71.10;;;;;;5056664;28;20039;-74